createdAt,value
2023-09-10T10:45:40.997Z,218
2023-09-10T10:46:26.986Z,154
2023-09-10T10:47:12.951Z,271
2023-09-10T10:47:58.979Z,273
2023-09-10T10:48:44.925Z,277
2023-09-10T10:49:31.000Z,280
2023-09-10T10:50:17.100Z,243
2023-09-10T10:51:03.113Z,195
2023-09-10T10:51:55.754Z,290
2023-09-10T10:52:34.952Z,131
2023-09-10T10:53:21.017Z,176
2023-09-10T10:54:06.924Z,175
2023-09-10T10:54:53.009Z,236
2023-09-10T10:55:38.956Z,211
2023-09-10T10:56:24.977Z,144
2023-09-10T10:57:11.027Z,189
2023-09-10T10:57:57.020Z,205
2023-09-10T10:58:43.182Z,213
2023-09-10T10:59:29.048Z,202
2023-09-10T11:00:15.104Z,206
2023-09-10T11:01:00.999Z,255
2023-09-10T11:01:47.044Z,259
2023-09-10T11:02:33.039Z,294
2023-09-10T11:03:19.281Z,278
2023-09-10T11:04:04.980Z,245
2023-09-10T11:04:51.036Z,267
2023-09-10T11:05:37.019Z,268
2023-09-10T11:06:23.046Z,127
2023-09-10T11:07:09.053Z,159
2023-09-10T11:07:55.060Z,125
2023-09-10T11:08:41.017Z,105
2023-09-10T11:09:27.028Z,209
2023-09-10T11:10:13.068Z,173
2023-09-10T11:10:59.029Z,166
2023-09-10T11:11:45.070Z,202
2023-09-10T11:12:31.038Z,246
2023-09-10T11:13:17.080Z,213
2023-09-10T11:14:03.181Z,248
2023-09-10T11:14:49.256Z,256
2023-09-10T11:15:35.216Z,183
2023-09-10T11:16:21.152Z,205
2023-09-10T11:17:07.131Z,218
2023-09-10T11:17:53.179Z,192
2023-09-10T11:18:39.051Z,236
2023-09-10T11:19:25.036Z,218
2023-09-10T11:20:11.203Z,233
2023-09-10T11:20:57.116Z,218
2023-09-10T11:21:43.042Z,182
2023-09-10T11:22:29.083Z,189
2023-09-10T11:23:15.103Z,139
2023-09-10T11:24:01.101Z,126
2023-09-10T11:24:47.095Z,86
2023-09-10T11:25:33.081Z,160
2023-09-10T11:26:19.335Z,222
2023-09-10T11:27:05.083Z,183
2023-09-10T11:27:51.066Z,167
2023-09-10T11:28:37.047Z,223
2023-09-10T11:29:23.164Z,273
2023-09-10T11:30:09.187Z,287
2023-09-10T11:30:55.202Z,213
2023-09-10T11:31:41.290Z,230
2023-09-10T11:32:27.245Z,240
2023-09-10T11:33:13.166Z,167
2023-09-10T11:33:59.124Z,141
2023-09-10T11:34:45.130Z,146
2023-09-10T11:35:31.173Z,214
2023-09-10T11:36:17.163Z,227
2023-09-10T11:37:03.164Z,217
2023-09-10T11:37:49.313Z,213
2023-09-10T11:38:35.156Z,230
2023-09-10T11:39:21.174Z,281
2023-09-10T11:40:07.113Z,199
2023-09-10T11:40:53.203Z,267
2023-09-10T11:41:39.206Z,311
2023-09-10T11:42:25.182Z,199
2023-09-10T11:43:11.126Z,75
2023-09-10T11:43:57.248Z,240
2023-09-10T11:44:43.171Z,214
2023-09-10T11:45:29.275Z,213
2023-09-10T11:46:15.162Z,128
2023-09-10T11:47:01.296Z,152
2023-09-10T11:47:47.266Z,218
2023-09-10T11:48:33.290Z,126
2023-09-10T11:49:19.278Z,143
2023-09-10T11:50:05.182Z,183
2023-09-10T11:50:51.171Z,229
2023-09-10T11:51:37.231Z,221
2023-09-10T11:52:23.217Z,198
2023-09-10T11:53:09.230Z,100
2023-09-10T11:53:55.235Z,252
2023-09-10T11:54:41.190Z,155
2023-09-10T11:55:27.322Z,215
2023-09-10T11:56:13.232Z,242
2023-09-10T11:56:59.234Z,281
2023-09-10T11:57:45.211Z,289
2023-09-10T11:58:31.225Z,226
2023-09-10T11:59:17.263Z,211
2023-09-10T12:00:03.370Z,289
2023-09-10T12:00:49.393Z,199
2023-09-10T12:01:35.237Z,203
2023-09-10T12:02:21.310Z,127
2023-09-10T12:03:07.529Z,169
2023-09-10T12:03:53.340Z,211
2023-09-10T12:04:39.239Z,189
2023-09-10T12:05:25.302Z,207
2023-09-10T12:06:11.216Z,275
2023-09-10T12:06:57.254Z,238
2023-09-10T12:07:43.254Z,9
2023-09-10T12:08:29.295Z,133
2023-09-10T12:09:15.293Z,217
2023-09-10T12:10:01.330Z,146
2023-09-10T12:10:47.317Z,214
2023-09-10T12:11:33.315Z,288
2023-09-10T12:12:19.371Z,256
2023-09-10T12:13:05.243Z,256
2023-09-10T12:13:51.258Z,268
2023-09-10T12:14:37.236Z,253
2023-09-10T12:15:23.395Z,239
2023-09-10T12:16:09.405Z,242
2023-09-10T12:16:55.392Z,216
2023-09-10T12:17:41.438Z,219
2023-09-10T12:18:27.390Z,217
2023-09-10T12:19:13.260Z,196
2023-09-10T12:19:59.365Z,201
2023-09-10T12:20:45.324Z,208
2023-09-10T12:21:31.319Z,219
2023-09-10T12:22:17.365Z,256
2023-09-10T12:23:03.431Z,196
2023-09-10T12:23:49.395Z,214
2023-09-10T12:24:35.341Z,140
2023-09-10T12:25:21.706Z,157
2023-09-10T12:26:07.292Z,165
2023-09-10T12:26:53.379Z,210
2023-09-10T12:27:39.288Z,152
2023-09-10T12:28:25.251Z,200
2023-09-10T12:29:11.313Z,215
2023-09-10T12:29:57.270Z,118
2023-09-10T12:30:43.431Z,152
2023-09-10T12:31:29.343Z,125
2023-09-10T12:32:15.283Z,142
2023-09-10T12:33:01.757Z,178
2023-09-10T12:33:47.318Z,266
2023-09-10T12:34:33.327Z,220
2023-09-10T12:35:19.350Z,169
2023-09-10T12:36:05.408Z,150
2023-09-10T12:36:51.343Z,210
2023-09-10T12:37:37.251Z,233
2023-09-10T12:38:23.337Z,232
2023-09-10T12:39:09.326Z,230
2023-09-10T12:39:55.378Z,100
2023-09-10T12:40:41.345Z,169
2023-09-10T12:41:27.331Z,206
2023-09-10T12:42:13.332Z,247
2023-09-10T12:42:59.309Z,219
2023-09-10T12:43:45.333Z,202
2023-09-10T12:44:31.411Z,199
2023-09-10T12:45:17.435Z,203
2023-09-10T12:46:03.398Z,154
2023-09-10T12:46:49.532Z,175
2023-09-10T12:47:35.427Z,173
2023-09-10T12:48:21.419Z,173
2023-09-10T12:49:07.430Z,173
2023-09-10T12:49:53.566Z,173
2023-09-10T12:50:39.456Z,173
2023-09-10T12:51:25.415Z,173
2023-09-10T12:52:11.393Z,173
2023-09-10T12:52:57.409Z,173
2023-09-10T12:53:43.511Z,173
2023-09-10T12:54:29.375Z,173
2023-09-10T12:55:15.313Z,173
2023-09-10T12:56:01.414Z,173
2023-09-10T12:56:47.389Z,173
2023-09-10T12:57:33.304Z,-9999
2023-09-10T12:58:19.306Z,-9999
2023-09-10T12:59:05.392Z,-9999
2023-09-10T12:59:51.264Z,-9999
2023-09-10T13:00:37.458Z,-9999
2023-09-10T13:01:23.384Z,-9999
2023-09-10T13:02:09.392Z,-9999
2023-09-10T13:02:55.451Z,-9999
2023-09-10T13:03:41.801Z,-9999
2023-09-10T13:04:27.347Z,-9999
2023-09-10T13:05:13.362Z,-9999
2023-09-10T13:05:59.362Z,-9999
2023-09-10T13:06:45.282Z,-9999
2023-09-10T13:07:31.369Z,-9999
2023-09-10T13:08:17.440Z,-9999
2023-09-10T13:09:03.363Z,-9999
2023-09-10T13:09:49.512Z,-9999
2023-09-10T13:10:35.372Z,-9999
2023-09-10T13:11:21.344Z,-9999
2023-09-10T13:12:07.371Z,-9999
2023-09-10T13:12:53.325Z,-9999
2023-09-10T13:13:39.630Z,-9999
2023-09-10T13:14:25.414Z,-9999
2023-09-10T13:15:11.507Z,-9999
2023-09-10T13:15:57.362Z,-9999
2023-09-10T13:16:43.427Z,-9999
2023-09-10T13:17:29.458Z,-9999
2023-09-10T13:18:15.532Z,-9999
2023-09-10T13:19:01.560Z,-9999
2023-09-10T13:19:47.401Z,-9999
2023-09-10T13:20:33.468Z,-9999
2023-09-10T13:21:19.460Z,-9999
2023-09-10T13:22:05.448Z,-9999
2023-09-10T13:22:51.480Z,-9999
2023-09-10T13:23:37.410Z,-9999
2023-09-10T13:24:23.829Z,-9999
2023-09-10T13:25:09.414Z,-9999
2023-09-10T13:25:55.508Z,-9999
2023-09-10T13:26:41.483Z,-9999
2023-09-10T13:27:27.413Z,-9999
2023-09-10T13:28:13.397Z,-9999
2023-09-10T13:28:59.460Z,-9999
2023-09-10T13:29:45.489Z,-9999
2023-09-10T13:30:31.645Z,-9999
2023-09-10T13:31:17.582Z,-9999
2023-09-10T13:32:03.455Z,-9999
2023-09-10T13:32:49.636Z,-9999
2023-09-10T13:33:35.515Z,-9999
2023-09-10T13:34:21.451Z,-9999
2023-09-10T13:35:07.529Z,-9999
2023-09-10T13:35:53.494Z,-9999
2023-09-10T13:36:39.439Z,-9999
2023-09-10T13:37:25.453Z,-9999
2023-09-10T13:38:11.543Z,-9999
2023-09-10T13:38:57.445Z,-9999
2023-09-10T13:39:43.469Z,-9999
2023-09-10T13:40:29.488Z,-9999
2023-09-10T13:41:15.549Z,-9999
2023-09-10T13:42:01.475Z,-9999
2023-09-10T13:42:47.510Z,-9999
2023-09-10T13:43:33.563Z,-9999
2023-09-10T13:44:19.596Z,-9999
2023-09-10T13:45:05.623Z,-9999
2023-09-10T13:45:51.499Z,-9999
2023-09-10T13:46:37.524Z,-9999
